createdAt,value
2018-04-25T00:00:07.351Z,14.05
2018-04-25T00:01:07.351Z,14.00
2018-04-25T00:02:07.356Z,14.04
2018-04-25T00:03:07.353Z,14.04
2018-04-25T00:04:07.355Z,14.08
2018-04-25T00:05:07.356Z,14.08
2018-04-25T00:06:07.357Z,13.97
2018-04-25T00:07:07.359Z,13.93
2018-04-25T00:08:07.359Z,13.94
2018-04-25T00:09:07.360Z,13.87
2018-04-25T00:10:07.360Z,13.86
2018-04-25T00:11:07.361Z,14.01
2018-04-25T00:12:07.363Z,13.93
2018-04-25T00:13:07.363Z,13.97
2018-04-25T00:14:07.363Z,13.97
2018-04-25T00:15:07.366Z,14.07
2018-04-25T00:16:07.366Z,14.04
2018-04-25T00:17:07.366Z,14.04
2018-04-25T00:18:07.368Z,14.07
2018-04-25T00:19:07.369Z,14.08
2018-04-25T00:20:07.369Z,14.04
2018-04-25T00:21:07.370Z,14.00
2018-04-25T00:22:07.371Z,14.01
2018-04-25T00:23:07.371Z,14.00
2018-04-25T00:25:07.374Z,13.85
2018-04-25T00:26:07.375Z,13.86
2018-04-25T00:27:07.375Z,13.87
2018-04-25T00:28:07.377Z,13.89
2018-04-25T00:29:07.377Z,13.83
2018-04-25T00:30:07.378Z,13.68
2018-04-25T00:31:07.379Z,13.78
2018-04-25T00:32:07.379Z,13.70
2018-04-25T00:33:07.381Z,13.68
2018-04-25T00:34:07.380Z,13.71
2018-04-25T00:35:07.382Z,13.76
2018-04-25T00:36:07.388Z,13.78
2018-04-25T00:37:07.382Z,13.78
2018-04-25T00:38:07.383Z,13.71
2018-04-25T00:39:07.385Z,13.76
2018-04-25T00:40:07.385Z,13.78
2018-04-25T00:41:07.384Z,13.87
2018-04-25T00:42:07.386Z,13.89
2018-04-25T00:43:07.387Z,13.83
2018-04-25T00:44:07.388Z,13.78
2018-04-25T00:45:07.388Z,13.79
2018-04-25T00:46:07.388Z,13.68
2018-04-25T00:47:07.389Z,13.67
2018-04-25T00:48:07.390Z,13.70
2018-04-25T00:49:07.393Z,13.70
2018-04-25T00:50:07.393Z,13.70
2018-04-25T00:51:07.392Z,13.76
2018-04-25T00:52:07.391Z,13.75
2018-04-25T00:53:07.392Z,13.71
2018-04-25T00:54:07.392Z,13.76
2018-04-25T00:55:07.395Z,13.76
2018-04-25T00:56:07.394Z,13.70
2018-04-25T00:57:07.398Z,13.70
2018-04-25T00:58:07.395Z,13.61
2018-04-25T00:59:07.399Z,13.61
2018-04-25T01:00:07.401Z,13.57
2018-04-25T01:01:07.398Z,13.54
2018-04-25T01:02:07.397Z,13.58
2018-04-25T01:03:07.398Z,13.55
2018-04-25T01:04:07.400Z,13.50
2018-04-25T01:05:07.399Z,13.55
2018-04-25T01:06:07.404Z,13.54
2018-04-25T01:07:07.400Z,13.57
2018-04-25T01:08:07.401Z,13.57
2018-04-25T01:09:07.471Z,13.55
2018-04-25T01:10:07.402Z,13.58
2018-04-25T01:11:07.402Z,13.52
2018-04-25T01:12:07.402Z,13.58
2018-04-25T01:13:07.403Z,13.54
2018-04-25T01:14:07.403Z,13.52
2018-04-25T01:15:07.403Z,13.57
2018-04-25T01:16:07.405Z,13.50
2018-04-25T01:17:07.405Z,13.61
2018-04-25T01:18:07.405Z,13.58
2018-04-25T01:19:07.405Z,13.55
2018-04-25T01:20:07.406Z,13.58
2018-04-25T01:21:07.406Z,13.65
2018-04-25T01:22:07.407Z,13.73
2018-04-25T01:23:07.407Z,13.67
2018-04-25T01:24:07.409Z,13.65
2018-04-25T01:25:07.407Z,13.68
2018-04-25T01:26:07.416Z,13.58
2018-04-25T01:27:07.409Z,13.58
2018-04-25T01:28:07.410Z,13.60
2018-04-25T01:29:07.414Z,13.58
2018-04-25T01:30:07.410Z,13.49
2018-04-25T01:31:07.411Z,13.58
2018-04-25T01:32:07.412Z,13.55
2018-04-25T01:33:07.409Z,13.61
2018-04-25T01:34:07.412Z,13.62
2018-04-25T01:35:07.411Z,13.64
2018-04-25T01:36:07.414Z,13.67
2018-04-25T01:37:07.413Z,13.67
2018-04-25T01:38:07.412Z,13.61
2018-04-25T01:39:07.414Z,13.60
2018-04-25T01:40:07.414Z,13.54
2018-04-25T01:41:07.414Z,13.57
2018-04-25T01:42:07.415Z,13.54
2018-04-25T01:43:07.414Z,13.55
2018-04-25T01:44:07.416Z,13.52
2018-04-25T01:45:07.415Z,13.50
2018-04-25T01:46:07.416Z,13.50
2018-04-25T01:47:07.418Z,13.47
2018-04-25T01:48:07.422Z,13.47
2018-04-25T01:49:07.417Z,13.46
2018-04-25T01:50:07.420Z,13.42
2018-04-25T01:51:07.418Z,13.43
2018-04-25T01:52:07.418Z,13.28
2018-04-25T01:53:07.426Z,13.28
2018-04-25T01:54:07.419Z,13.31
2018-04-25T01:55:07.420Z,13.31
2018-04-25T01:56:07.418Z,13.42
2018-04-25T01:57:07.419Z,13.27
2018-04-25T01:58:07.419Z,13.27
2018-04-25T01:59:07.422Z,13.31
2018-04-25T02:00:07.421Z,13.31
2018-04-25T02:01:07.420Z,13.24
2018-04-25T02:02:07.420Z,13.23
2018-04-25T02:03:07.421Z,13.27
2018-04-25T02:04:07.421Z,13.26
2018-04-25T02:05:07.420Z,13.23
2018-04-25T02:06:07.424Z,13.21
2018-04-25T02:07:07.422Z,13.21
2018-04-25T02:08:07.423Z,13.24
2018-04-25T02:09:07.422Z,13.36
2018-04-25T02:10:07.423Z,13.36
2018-04-25T02:11:07.422Z,13.20
2018-04-25T02:12:07.423Z,13.21
2018-04-25T02:13:07.423Z,13.37
2018-04-25T02:14:07.423Z,13.21
2018-04-25T02:15:07.423Z,13.24
2018-04-25T02:16:07.424Z,13.40
2018-04-25T02:17:07.423Z,13.37
2018-04-25T02:18:07.424Z,13.39
2018-04-25T02:19:07.424Z,13.43
2018-04-25T02:20:07.423Z,13.43
2018-04-25T02:21:07.423Z,13.43
2018-04-25T02:22:07.424Z,13.46
2018-04-25T02:23:07.427Z,13.47
2018-04-25T02:24:07.428Z,13.43
2018-04-25T02:25:07.423Z,13.52
2018-04-25T02:26:07.427Z,13.57
2018-04-25T02:27:07.425Z,13.60
2018-04-25T02:28:07.425Z,13.62
2018-04-25T02:29:07.424Z,13.58
2018-04-25T02:30:07.425Z,13.62
2018-04-25T02:31:07.425Z,13.55
2018-04-25T02:32:07.426Z,13.57
2018-04-25T02:33:07.424Z,13.52
2018-04-25T02:34:07.428Z,13.62
2018-04-25T02:35:07.427Z,13.58
2018-04-25T02:36:07.427Z,13.40
2018-04-25T02:37:07.426Z,13.46
2018-04-25T02:38:07.426Z,13.39
2018-04-25T02:39:07.427Z,13.54
2018-04-25T02:40:07.429Z,13.54
2018-04-25T02:41:07.428Z,13.50
2018-04-25T02:42:07.429Z,13.50
2018-04-25T02:43:07.429Z,13.45
2018-04-25T02:44:07.428Z,13.52
2018-04-25T02:45:07.429Z,13.52
2018-04-25T02:46:07.429Z,13.46
2018-04-25T02:47:07.432Z,13.43
2018-04-25T02:48:07.430Z,13.37
2018-04-25T02:49:07.429Z,13.39
2018-04-25T02:50:07.432Z,13.31
2018-04-25T02:51:07.432Z,13.28
2018-04-25T02:52:07.431Z,13.33
2018-04-25T02:53:07.434Z,13.36
2018-04-25T02:54:07.431Z,13.37
2018-04-25T02:55:07.434Z,13.36
2018-04-25T02:56:07.434Z,13.40
2018-04-25T02:57:07.431Z,13.36
2018-04-25T02:58:07.431Z,13.33
2018-04-25T02:59:07.434Z,13.30
2018-04-25T03:00:07.432Z,13.37
2018-04-25T03:01:07.433Z,13.26
2018-04-25T03:02:07.432Z,13.24
2018-04-25T03:03:07.432Z,13.20
2018-04-25T03:04:07.437Z,13.33
2018-04-25T03:05:07.433Z,13.20
2018-04-25T03:06:07.432Z,13.20
2018-04-25T03:07:07.434Z,13.20
2018-04-25T03:08:07.433Z,13.17
2018-04-25T03:09:07.433Z,13.16
2018-04-25T03:10:07.434Z,13.16
2018-04-25T03:11:07.435Z,13.21
2018-04-25T03:12:07.434Z,13.20
2018-04-25T03:13:07.432Z,13.21
2018-04-25T03:14:07.433Z,13.17
2018-04-25T03:15:07.435Z,13.19
2018-04-25T03:16:07.434Z,13.13
2018-04-25T03:17:07.434Z,12.99
2018-04-25T03:18:07.434Z,12.99
2018-04-25T03:19:07.438Z,12.98
2018-04-25T03:20:07.436Z,12.87
2018-04-25T03:21:07.434Z,12.87
2018-04-25T03:22:07.434Z,12.88
2018-04-25T03:23:07.434Z,12.87
2018-04-25T03:24:07.434Z,12.84
2018-04-25T03:25:07.433Z,12.76
2018-04-25T03:26:07.433Z,12.83
2018-04-25T03:27:07.433Z,12.81
2018-04-25T03:28:07.434Z,12.78
2018-04-25T03:29:07.434Z,12.76
2018-04-25T03:30:07.434Z,12.84
2018-04-25T03:31:07.434Z,12.80
2018-04-25T03:32:07.433Z,12.78
2018-04-25T03:33:07.432Z,12.81
2018-04-25T03:34:07.433Z,12.88
2018-04-25T03:35:07.433Z,12.99
2018-04-25T03:36:07.434Z,13.02
2018-04-25T03:37:07.433Z,13.02
2018-04-25T03:38:07.432Z,13.12
2018-04-25T03:39:07.432Z,13.09
2018-04-25T03:40:07.432Z,13.09
2018-04-25T03:41:07.489Z,13.08
2018-04-25T03:42:07.431Z,13.06
2018-04-25T03:43:07.432Z,13.02
2018-04-25T03:44:07.432Z,13.09
2018-04-25T03:45:07.433Z,12.98
2018-04-25T03:46:07.431Z,12.95
2018-04-25T03:47:07.431Z,12.95
2018-04-25T03:48:07.432Z,13.03
2018-04-25T03:49:07.429Z,13.01
2018-04-25T03:50:07.431Z,13.01
2018-04-25T03:51:07.430Z,13.01
2018-04-25T03:52:07.431Z,12.99
2018-04-25T03:53:07.429Z,12.98
2018-04-25T03:54:07.429Z,12.98
2018-04-25T03:55:07.432Z,12.90
2018-04-25T03:56:07.429Z,12.93
2018-04-25T03:57:07.432Z,12.94
2018-04-25T03:58:07.430Z,12.90
2018-04-25T03:59:07.484Z,12.86
2018-04-25T04:00:07.428Z,12.94
2018-04-25T04:01:07.429Z,12.99
2018-04-25T04:02:07.427Z,12.88
2018-04-25T04:03:07.427Z,12.90
2018-04-25T04:04:07.433Z,12.78
2018-04-25T04:05:07.427Z,12.83
2018-04-25T04:06:07.426Z,12.78
2018-04-25T04:07:07.426Z,12.76
2018-04-25T04:08:07.427Z,12.87
2018-04-25T04:09:07.429Z,12.90
2018-04-25T04:10:07.426Z,13.03
2018-04-25T04:11:07.426Z,13.01
2018-04-25T04:12:07.425Z,13.03
2018-04-25T04:13:07.425Z,13.08
2018-04-25T04:14:07.426Z,13.12
2018-04-25T04:15:07.425Z,13.19
2018-04-25T04:16:07.429Z,13.19
2018-04-25T04:17:07.424Z,13.16
2018-04-25T04:18:07.425Z,13.16
2018-04-25T04:19:07.426Z,13.20
2018-04-25T04:20:07.425Z,13.12
2018-04-25T04:21:07.423Z,13.19
2018-04-25T04:22:07.425Z,13.20
2018-04-25T04:23:07.424Z,13.19
2018-04-25T04:24:07.426Z,13.21
2018-04-25T04:25:07.424Z,13.23
2018-04-25T04:26:07.423Z,13.11
2018-04-25T04:27:07.426Z,13.03
2018-04-25T04:28:07.424Z,13.05
2018-04-25T04:29:07.423Z,13.08
2018-04-25T04:30:07.428Z,13.08
2018-04-25T04:31:07.422Z,12.88
2018-04-25T04:32:07.424Z,12.90
2018-04-25T04:33:07.423Z,12.75
2018-04-25T04:34:07.465Z,12.76
2018-04-25T04:35:07.425Z,12.75
2018-04-25T04:36:07.424Z,12.61
2018-04-25T04:37:07.422Z,12.66
2018-04-25T04:38:07.426Z,12.61
2018-04-25T04:39:07.424Z,12.53
2018-04-25T04:40:07.422Z,12.50
2018-04-25T04:41:07.424Z,12.40
2018-04-25T04:42:07.423Z,12.44
2018-04-25T04:43:07.481Z,12.37
2018-04-25T04:44:07.422Z,12.35
2018-04-25T04:45:07.426Z,12.33
2018-04-25T04:46:07.422Z,12.36
2018-04-25T04:47:07.423Z,12.40
2018-04-25T04:48:07.422Z,12.37
2018-04-25T04:49:07.420Z,12.36
2018-04-25T04:50:07.422Z,12.35
2018-04-25T04:51:07.423Z,12.39
2018-04-25T04:52:07.421Z,12.36
2018-04-25T04:53:07.422Z,12.30
2018-04-25T04:54:07.421Z,12.30
2018-04-25T04:55:07.421Z,12.30
2018-04-25T04:56:07.422Z,12.32
2018-04-25T04:57:07.424Z,12.30
2018-04-25T04:58:07.420Z,12.37
2018-04-25T04:59:07.420Z,12.44
2018-04-25T05:00:07.421Z,12.36
2018-04-25T05:01:07.420Z,12.33
2018-04-25T05:02:07.421Z,12.36
2018-04-25T05:03:07.422Z,12.35
2018-04-25T05:04:07.420Z,12.40
2018-04-25T05:05:07.417Z,12.53
2018-04-25T05:06:07.418Z,12.58
2018-04-25T05:07:07.419Z,12.54
2018-04-25T05:08:07.417Z,12.66
2018-04-25T05:09:07.417Z,12.78
2018-04-25T05:10:07.419Z,12.81
2018-04-25T05:11:07.417Z,12.83
2018-04-25T05:12:07.417Z,12.84
2018-04-25T05:13:07.490Z,12.91
2018-04-25T05:14:07.417Z,12.99
2018-04-25T05:15:07.418Z,12.95
2018-04-25T05:16:07.418Z,12.95
2018-04-25T05:17:07.421Z,13.01
2018-04-25T05:18:07.418Z,13.02
2018-04-25T05:19:07.418Z,13.12
2018-04-25T05:20:07.418Z,13.13
2018-04-25T05:21:07.417Z,13.21
2018-04-25T05:22:07.417Z,13.26
2018-04-25T05:23:07.418Z,13.27
2018-04-25T05:24:07.418Z,13.23
2018-04-25T05:25:07.417Z,13.13
2018-04-25T05:26:07.420Z,13.13
2018-04-25T05:27:07.418Z,13.12
2018-04-25T05:28:07.421Z,13.20
2018-04-25T05:29:07.418Z,13.05
2018-04-25T05:30:07.418Z,13.05
2018-04-25T05:31:07.419Z,13.12
2018-04-25T05:32:07.497Z,13.11
2018-04-25T05:33:07.418Z,13.20
2018-04-25T05:34:07.419Z,13.26
2018-04-25T05:35:07.423Z,13.40
2018-04-25T05:36:07.420Z,13.28
2018-04-25T05:37:07.420Z,13.31
2018-04-25T05:38:07.419Z,13.31
2018-04-25T05:39:07.420Z,13.52
2018-04-25T05:40:07.420Z,13.61
2018-04-25T05:41:07.418Z,13.65
2018-04-25T05:42:07.420Z,13.68
2018-04-25T05:43:07.421Z,13.73
2018-04-25T05:44:07.421Z,13.68
2018-04-25T05:45:07.421Z,13.64
2018-04-25T05:46:07.434Z,13.58
2018-04-25T05:47:07.422Z,13.57
2018-04-25T05:48:07.422Z,13.67
2018-04-25T05:49:07.422Z,13.75
2018-04-25T05:50:07.430Z,13.79
2018-04-25T05:51:07.424Z,13.98
2018-04-25T05:52:07.429Z,13.97
2018-04-25T05:53:07.424Z,14.05
2018-04-25T05:54:07.425Z,14.04
2018-04-25T05:55:07.426Z,14.15
2018-04-25T05:56:07.427Z,14.20
2018-04-25T05:57:07.426Z,14.19
2018-04-25T05:58:07.430Z,14.25
2018-04-25T05:59:07.428Z,14.33
2018-04-25T06:00:07.581Z,14.40
2018-04-25T06:01:07.505Z,14.43
2018-04-25T06:02:07.452Z,14.49
2018-04-25T06:03:07.431Z,14.53
2018-04-25T06:04:07.479Z,14.67
2018-04-25T06:05:07.546Z,14.70
2018-04-25T06:06:07.476Z,14.81
2018-04-25T06:07:07.502Z,14.82
2018-04-25T06:08:07.509Z,14.93
2018-04-25T06:09:07.435Z,14.97
2018-04-25T06:10:07.465Z,14.99
2018-04-25T06:11:07.470Z,15.10
2018-04-25T06:12:07.440Z,15.00
2018-04-25T06:13:07.440Z,15.07
2018-04-25T06:14:07.463Z,15.15
2018-04-25T06:15:07.443Z,15.14
2018-04-25T06:16:07.444Z,15.11
2018-04-25T06:17:07.446Z,15.22
2018-04-25T06:18:07.450Z,15.23
2018-04-25T06:19:07.449Z,15.33
2018-04-25T06:20:07.450Z,15.44
2018-04-25T06:21:07.453Z,15.43
2018-04-25T06:22:07.452Z,15.48
2018-04-25T06:23:07.454Z,15.54
2018-04-25T06:24:07.458Z,15.65
2018-04-25T06:25:07.456Z,15.66
2018-04-25T06:26:07.458Z,15.80
2018-04-25T06:27:07.459Z,15.84
2018-04-25T06:28:07.529Z,15.88
2018-04-25T06:29:07.467Z,16.02
2018-04-25T06:30:07.467Z,16.13
2018-04-25T06:31:07.466Z,16.26
2018-04-25T06:32:07.471Z,16.34
2018-04-25T06:33:07.470Z,16.28
2018-04-25T06:34:07.473Z,16.28
2018-04-25T06:35:07.475Z,16.39
2018-04-25T06:36:07.477Z,16.43
2018-04-25T06:37:07.483Z,16.50
2018-04-25T06:38:07.481Z,16.55
2018-04-25T06:39:07.483Z,16.57
2018-04-25T06:40:07.485Z,16.62
2018-04-25T06:41:07.487Z,16.62
2018-04-25T06:42:07.489Z,16.69
2018-04-25T06:43:07.491Z,16.64
2018-04-25T06:44:07.495Z,16.66
2018-04-25T06:45:07.548Z,16.74
2018-04-25T06:46:07.497Z,16.84
2018-04-25T06:47:07.521Z,17.01
2018-04-25T06:48:07.505Z,17.52
2018-04-25T06:49:07.507Z,18.34
2018-04-25T06:50:07.512Z,19.56
2018-04-25T06:51:07.517Z,20.44
2018-04-25T06:52:07.536Z,21.28
2018-04-25T06:53:07.529Z,21.97
2018-04-25T06:54:07.538Z,22.53
2018-04-25T06:55:07.546Z,22.98
2018-04-25T06:56:07.554Z,23.59
2018-04-25T06:57:07.562Z,24.07
2018-04-25T06:58:07.570Z,24.53
2018-04-25T06:59:07.578Z,24.88
2018-04-25T07:00:07.588Z,24.96
2018-04-25T07:01:07.597Z,25.12
2018-04-25T07:02:07.605Z,24.84
2018-04-25T07:03:07.616Z,24.55
2018-04-25T07:04:07.625Z,24.34
2018-04-25T07:05:07.633Z,23.95
2018-04-25T07:06:07.643Z,23.64
2018-04-25T07:07:07.655Z,23.23
2018-04-25T07:08:07.745Z,22.89
2018-04-25T07:09:07.670Z,22.58
2018-04-25T07:10:07.679Z,22.43
2018-04-25T07:11:07.688Z,22.31
2018-04-25T07:12:07.729Z,22.47
2018-04-25T07:13:07.704Z,22.52
2018-04-25T07:14:07.733Z,22.49
2018-04-25T07:15:07.721Z,22.36
2018-04-25T07:16:07.729Z,22.14
2018-04-25T07:17:07.736Z,22.07
2018-04-25T07:18:07.745Z,22.18
2018-04-25T07:19:07.753Z,22.23
2018-04-25T07:20:07.759Z,22.26
2018-04-25T07:21:07.767Z,22.38
2018-04-25T07:22:07.782Z,22.38
2018-04-25T07:23:07.783Z,22.33
2018-04-25T07:24:07.825Z,22.30
2018-04-25T07:25:07.898Z,22.22
2018-04-25T07:26:07.803Z,22.23
2018-04-25T07:27:07.811Z,22.10
2018-04-25T07:28:08.123Z,21.89
2018-04-25T07:29:07.825Z,22.08
2018-04-25T07:30:07.832Z,21.97
2018-04-25T07:31:08.109Z,21.92
2018-04-25T07:32:07.846Z,21.85
2018-04-25T07:33:07.853Z,21.92
2018-04-25T07:34:07.860Z,21.81
2018-04-25T07:35:08.621Z,21.85
2018-04-25T07:36:07.874Z,21.85
2018-04-25T07:37:08.172Z,21.78
2018-04-25T07:38:07.888Z,21.75
2018-04-25T07:39:07.896Z,21.77
2018-04-25T07:40:07.899Z,21.74
2018-04-25T07:41:08.249Z,21.65
2018-04-25T07:42:07.912Z,21.60
2018-04-25T07:43:07.918Z,21.66
2018-04-25T07:44:08.034Z,21.77
2018-04-25T07:45:07.931Z,21.63
2018-04-25T07:46:07.945Z,21.56
2018-04-25T07:47:07.944Z,21.58
2018-04-25T07:48:07.952Z,21.60
2018-04-25T07:49:07.959Z,21.60
2018-04-25T07:50:08.193Z,21.68
2018-04-25T07:51:07.978Z,21.85
2018-04-25T07:52:07.987Z,21.89
2018-04-25T07:53:07.988Z,22.01
2018-04-25T07:54:07.991Z,22.00
2018-04-25T07:55:07.997Z,21.99
2018-04-25T07:56:08.008Z,21.96
2018-04-25T07:57:08.012Z,21.84
2018-04-25T07:58:08.184Z,22.00
2018-04-25T07:59:08.025Z,22.00
2018-04-25T08:00:08.036Z,22.12
2018-04-25T08:01:08.041Z,22.36
2018-04-25T08:02:08.083Z,22.49
2018-04-25T08:03:08.098Z,22.62
2018-04-25T08:04:08.066Z,22.78
2018-04-25T08:05:08.074Z,23.06
2018-04-25T08:06:08.258Z,23.25
2018-04-25T08:07:08.091Z,23.44
2018-04-25T08:08:08.102Z,23.77
2018-04-25T08:09:08.113Z,24.22
2018-04-25T08:10:08.174Z,24.44
2018-04-25T08:11:08.203Z,24.71
2018-04-25T08:12:08.317Z,24.94
2018-04-25T08:13:08.245Z,25.06
2018-04-25T08:14:08.264Z,25.15
2018-04-25T08:15:08.175Z,25.16
2018-04-25T08:16:08.185Z,25.31
2018-04-25T08:17:08.275Z,25.58
2018-04-25T08:18:08.210Z,25.19
2018-04-25T08:19:08.220Z,24.93
2018-04-25T08:20:08.232Z,25.30
2018-04-25T08:21:08.242Z,25.56
2018-04-25T08:22:08.534Z,25.88
2018-04-25T08:23:08.267Z,25.58
2018-04-25T08:24:08.286Z,24.85
2018-04-25T08:25:08.293Z,24.50
2018-04-25T08:26:08.307Z,24.51
2018-04-25T08:27:08.320Z,24.56
2018-04-25T08:28:08.337Z,24.31
2018-04-25T08:29:08.351Z,24.74
2018-04-25T08:30:08.580Z,24.69
2018-04-25T08:31:08.372Z,24.21
2018-04-25T08:32:08.384Z,24.26
2018-04-25T08:33:08.396Z,24.44
2018-04-25T08:34:08.408Z,24.31
2018-04-25T08:35:08.479Z,24.03
2018-04-25T08:36:08.432Z,24.13
2018-04-25T08:37:08.442Z,24.18
2018-04-25T08:38:08.456Z,24.18
2018-04-25T08:39:08.469Z,24.25
2018-04-25T08:40:08.476Z,24.18
2018-04-25T08:41:08.487Z,24.29
2018-04-25T08:42:08.497Z,24.44
2018-04-25T08:43:08.509Z,24.69
2018-04-25T08:44:08.520Z,24.99
2018-04-25T08:45:08.556Z,25.18
2018-04-25T08:46:08.542Z,25.15
2018-04-25T08:47:08.552Z,25.03
2018-04-25T08:48:08.563Z,24.69
2018-04-25T08:49:08.575Z,24.53
2018-04-25T08:50:08.584Z,24.41
2018-04-25T08:51:08.596Z,24.59
2018-04-25T08:52:08.607Z,24.66
2018-04-25T08:53:08.616Z,25.11
2018-04-25T08:54:08.632Z,25.55
2018-04-25T08:55:08.663Z,25.55
2018-04-25T08:56:08.655Z,25.63
2018-04-25T08:57:08.668Z,26.18
2018-04-25T08:58:08.677Z,26.64
2018-04-25T08:59:09.005Z,26.96
2018-04-25T09:00:08.706Z,27.22
2018-04-25T09:01:08.719Z,27.60
2018-04-25T09:02:08.733Z,27.83
2018-04-25T09:03:08.746Z,28.12
2018-04-25T09:04:08.761Z,28.19
2018-04-25T09:05:08.775Z,28.16
2018-04-25T09:06:08.795Z,27.83
2018-04-25T09:07:08.805Z,27.60
2018-04-25T09:08:08.819Z,27.57
2018-04-25T09:09:08.832Z,27.13
2018-04-25T09:10:08.849Z,27.37
2018-04-25T09:11:08.864Z,27.68
2018-04-25T09:12:08.883Z,27.95
2018-04-25T09:13:08.893Z,28.23
2018-04-25T09:14:08.910Z,28.00
2018-04-25T09:15:08.927Z,28.22
2018-04-25T09:16:08.940Z,28.41
2018-04-25T09:17:08.955Z,28.74
2018-04-25T09:18:08.971Z,28.80
2018-04-25T09:19:08.987Z,28.53
2018-04-25T09:20:09.005Z,28.27
2018-04-25T09:21:09.017Z,27.76
2018-04-25T09:22:09.107Z,27.63
2018-04-25T09:23:09.053Z,27.40
2018-04-25T09:24:09.065Z,27.81
2018-04-25T09:25:09.081Z,28.16
2018-04-25T09:26:09.146Z,28.49
2018-04-25T09:27:09.408Z,28.87
2018-04-25T09:28:09.131Z,29.22
2018-04-25T09:29:09.143Z,28.93
2018-04-25T09:30:09.158Z,29.07
2018-04-25T09:31:09.178Z,29.12
2018-04-25T09:32:09.419Z,28.64
2018-04-25T09:33:09.207Z,27.82
2018-04-25T09:34:09.229Z,28.03
2018-04-25T09:35:09.243Z,27.79
2018-04-25T09:36:09.255Z,27.37
2018-04-25T09:37:09.269Z,27.23
2018-04-25T09:38:09.284Z,27.29
2018-04-25T09:39:09.300Z,27.22
2018-04-25T09:40:09.498Z,27.00
2018-04-25T09:41:09.329Z,26.73
2018-04-25T09:42:09.345Z,27.00
2018-04-25T09:43:09.360Z,27.38
2018-04-25T09:44:09.376Z,27.37
2018-04-25T09:45:09.389Z,27.55
2018-04-25T09:46:09.404Z,27.18
2018-04-25T09:47:09.420Z,27.33
2018-04-25T09:48:09.433Z,27.78
2018-04-25T09:49:09.447Z,28.09
2018-04-25T09:50:09.464Z,28.12
2018-04-25T09:51:09.477Z,28.35
2018-04-25T09:52:09.493Z,28.37
2018-04-25T09:53:09.512Z,27.52
2018-04-25T09:54:09.560Z,27.43
2018-04-25T09:55:09.536Z,27.30
2018-04-25T09:56:09.550Z,27.43
2018-04-25T09:57:09.563Z,26.97
2018-04-25T09:58:09.578Z,26.97
2018-04-25T09:59:09.591Z,26.92
2018-04-25T10:00:09.606Z,26.53
2018-04-25T10:01:09.620Z,26.55
2018-04-25T10:02:09.632Z,26.68
2018-04-25T10:03:09.646Z,26.85
2018-04-25T10:04:10.694Z,26.82
2018-04-25T10:05:09.882Z,26.66
2018-04-25T10:06:09.686Z,26.79
2018-04-25T10:07:09.699Z,27.19
2018-04-25T10:08:09.793Z,27.23
2018-04-25T10:09:09.727Z,27.44
2018-04-25T10:10:09.740Z,27.61
2018-04-25T10:11:09.754Z,27.16
2018-04-25T10:12:09.769Z,26.78
2018-04-25T10:13:09.781Z,26.73
2018-04-25T10:14:09.794Z,26.98
2018-04-25T10:15:09.817Z,26.66
2018-04-25T10:16:09.821Z,26.60
2018-04-25T10:17:09.879Z,26.96
2018-04-25T10:18:09.848Z,27.13
2018-04-25T10:19:09.859Z,27.48
2018-04-25T10:20:09.874Z,27.58
2018-04-25T10:21:09.923Z,28.04
2018-04-25T10:22:09.915Z,27.50
2018-04-25T10:23:09.983Z,27.01
2018-04-25T10:24:09.986Z,26.74
2018-04-25T10:25:09.974Z,26.64
2018-04-25T10:26:10.015Z,26.70
2018-04-25T10:27:10.090Z,26.63
2018-04-25T10:28:10.063Z,26.59
2018-04-25T10:29:10.060Z,26.23
2018-04-25T10:30:10.064Z,25.96
2018-04-25T10:31:10.054Z,26.41
2018-04-25T10:32:10.139Z,26.68
2018-04-25T10:33:10.043Z,26.83
2018-04-25T10:34:10.133Z,26.92
2018-04-25T10:35:10.069Z,27.03
2018-04-25T10:36:10.084Z,27.01
2018-04-25T10:37:10.096Z,27.15
2018-04-25T10:38:10.109Z,26.76
2018-04-25T10:39:10.122Z,26.44
2018-04-25T10:40:10.135Z,26.74
2018-04-25T10:41:10.147Z,26.98
2018-04-25T10:42:10.160Z,27.41
2018-04-25T10:43:10.179Z,27.63
2018-04-25T10:44:10.207Z,27.82
2018-04-25T10:45:10.199Z,27.79
2018-04-25T10:46:10.213Z,27.71
2018-04-25T10:47:10.670Z,27.64
2018-04-25T10:48:10.238Z,27.10
2018-04-25T10:49:10.249Z,26.78
2018-04-25T10:50:10.264Z,26.56
2018-04-25T10:51:10.303Z,26.81
2018-04-25T10:52:10.320Z,27.13
2018-04-25T10:53:10.302Z,27.11
2018-04-25T10:54:10.319Z,27.26
2018-04-25T10:55:10.328Z,27.22
2018-04-25T10:56:10.342Z,27.40
2018-04-25T10:57:10.354Z,27.29
2018-04-25T10:58:10.369Z,27.34
2018-04-25T10:59:10.379Z,27.45
2018-04-25T11:00:10.393Z,27.68
2018-04-25T11:01:10.406Z,27.58
2018-04-25T11:02:10.424Z,27.68
2018-04-25T11:03:10.434Z,27.73
2018-04-25T11:04:10.446Z,27.76
2018-04-25T11:05:10.460Z,28.01
2018-04-25T11:06:10.471Z,28.12
2018-04-25T11:07:10.487Z,28.13
2018-04-25T11:08:10.502Z,28.20
2018-04-25T11:09:10.513Z,28.27
2018-04-25T11:10:10.527Z,28.04
2018-04-25T11:11:10.540Z,27.64
2018-04-25T11:12:10.553Z,27.61
2018-04-25T11:13:10.567Z,27.64
2018-04-25T11:14:10.581Z,27.50
2018-04-25T11:15:10.595Z,27.64
2018-04-25T11:16:10.610Z,27.50
2018-04-25T11:17:10.621Z,27.45
2018-04-25T11:18:10.635Z,27.44
2018-04-25T11:19:10.649Z,27.63
2018-04-25T11:20:10.663Z,27.72
2018-04-25T11:21:10.675Z,27.64
2018-04-25T11:22:10.689Z,27.34
2018-04-25T11:23:10.711Z,27.61
2018-04-25T11:24:10.716Z,27.75
2018-04-25T11:25:12.045Z,27.85
2018-04-25T11:26:10.741Z,28.01
2018-04-25T11:27:10.756Z,28.01
2018-04-25T11:28:10.769Z,28.10
2018-04-25T11:29:10.783Z,28.19
2018-04-25T11:30:10.796Z,27.98
2018-04-25T11:31:10.811Z,27.85
2018-04-25T11:32:10.823Z,27.78
2018-04-25T11:33:10.837Z,27.60
2018-04-25T11:34:10.850Z,27.52
2018-04-25T11:35:10.864Z,27.41
2018-04-25T11:36:10.876Z,27.44
2018-04-25T11:37:10.889Z,27.50
2018-04-25T11:38:10.902Z,27.45
2018-04-25T11:39:10.916Z,27.47
2018-04-25T11:40:12.347Z,27.41
2018-04-25T11:41:11.037Z,27.60
2018-04-25T11:42:10.956Z,27.38
2018-04-25T11:43:10.970Z,27.43
2018-04-25T11:44:10.983Z,27.35
2018-04-25T11:45:10.994Z,27.38
2018-04-25T11:46:11.009Z,27.43
2018-04-25T11:47:11.115Z,27.47
2018-04-25T11:48:11.037Z,27.63
2018-04-25T11:49:11.055Z,27.66
2018-04-25T11:50:11.061Z,27.79
2018-04-25T11:51:11.074Z,27.76
2018-04-25T11:52:11.088Z,27.90
2018-04-25T11:53:11.100Z,28.01
2018-04-25T11:54:11.113Z,28.10
2018-04-25T11:55:11.126Z,28.19
2018-04-25T11:56:11.143Z,28.13
2018-04-25T11:57:11.151Z,28.18
2018-04-25T11:58:11.165Z,28.12
2018-04-25T11:59:11.179Z,27.85
2018-04-25T12:00:11.192Z,27.60
2018-04-25T12:01:11.204Z,27.44
2018-04-25T12:02:11.221Z,27.44
2018-04-25T12:03:11.231Z,27.44
2018-04-25T12:04:11.383Z,27.47
2018-04-25T12:05:11.256Z,27.29
2018-04-25T12:06:11.268Z,27.25
2018-04-25T12:07:11.281Z,27.40
2018-04-25T12:08:11.295Z,27.52
2018-04-25T12:09:11.548Z,27.58
2018-04-25T12:10:11.318Z,27.63
2018-04-25T12:11:11.332Z,27.67
2018-04-25T12:12:11.344Z,27.64
2018-04-25T12:13:11.376Z,27.72
2018-04-25T12:14:11.369Z,27.63
2018-04-25T12:15:11.386Z,27.67
2018-04-25T12:16:11.394Z,27.75
2018-04-25T12:17:11.405Z,27.91
2018-04-25T12:18:11.419Z,28.00
2018-04-25T12:19:11.436Z,28.09
2018-04-25T12:20:11.444Z,28.04
2018-04-25T12:21:11.455Z,27.97
2018-04-25T12:22:11.468Z,27.52
2018-04-25T12:23:11.481Z,27.30
2018-04-25T12:24:11.495Z,27.11
2018-04-25T12:25:11.508Z,26.93
2018-04-25T12:26:11.534Z,26.97
2018-04-25T12:27:11.785Z,27.13
2018-04-25T12:28:11.540Z,27.41
2018-04-25T12:29:11.554Z,27.71
2018-04-25T12:30:11.564Z,27.58
2018-04-25T12:31:11.578Z,27.55
2018-04-25T12:32:11.590Z,27.60
2018-04-25T12:33:11.601Z,27.58
2018-04-25T12:34:11.628Z,27.50
2018-04-25T12:35:11.626Z,27.71
2018-04-25T12:36:11.639Z,27.73
2018-04-25T12:37:11.652Z,27.61
2018-04-25T12:38:11.662Z,27.47
2018-04-25T12:39:11.742Z,27.26
2018-04-25T12:40:11.979Z,26.97
2018-04-25T12:41:11.698Z,26.97
2018-04-25T12:42:11.995Z,26.68
2018-04-25T12:43:11.722Z,26.64
2018-04-25T12:44:11.732Z,26.79
2018-04-25T12:45:11.744Z,26.97
2018-04-25T12:46:11.756Z,26.97
2018-04-25T12:47:11.802Z,26.79
2018-04-25T12:48:11.780Z,26.74
2018-04-25T12:49:11.791Z,26.71
2018-04-25T12:50:11.803Z,26.67
2018-04-25T12:51:11.814Z,26.56
2018-04-25T12:52:11.828Z,26.52
2018-04-25T12:53:11.839Z,26.41